Time;durP1;ratioP1;P1;durP2;ratioP2;P2;SDS_P1;SDS_P2;PMS_P1;PMS_P2;Temp;Humidity;BMP_temperature;BMP_pressure;BME280_temperature;BME280_humidity;BME280_pressure;Samples;Min_cycle;Max_cycle;Signal;HPM_P1;HPM_P2
2021/09/15 00:01:19;;;;;;;;;;;;;;;10.07;55.67;98861.88;5014408;28;19925;-88
2021/09/15 00:03:45;;;;;;;;;;;;;;;10.05;56.20;98869.59;5013151;28;19926;-93
2021/09/15 00:06:11;;;;;;;;;;;;;;;10.10;55.89;98869.44;4993376;28;19930;-87
2021/09/15 00:08:37;;;;;;;;;;;;;;;10.11;56.26;98860.09;4994173;28;20415;-89
2021/09/15 00:11:03;;;;;;;;;;;;;;;10.06;55.75;98852.84;4994087;28;19932;-87
2021/09/15 00:13:30;;;;;;;;;;;;;;;10.07;56.30;98867.34;4976801;28;19933;-88
2021/09/15 00:15:56;;;;;;;;;;;;;;;10.08;56.48;98863.47;4994016;28;19926;-88
2021/09/15 00:18:23;;;;;;;;;;;;;;;10.05;56.18;98867.66;4956860;28;19949;-92
2021/09/15 00:20:49;;;;;;;;;;;;;;;10.10;56.15;98874.91;4981482;28;20391;-88
2021/09/15 00:23:15;;;;;;;;;;;;;;;10.05;56.30;98861.38;4976850;28;19932;-87
2021/09/15 00:25:41;;;;;;;;;;;;;;;10.00;56.00;98873.28;4976820;28;19929;-88
2021/09/15 00:28:12;;;;;;;;;;;;;;;9.97;56.38;98863.00;4976358;28;20347;-87
2021/09/15 00:30:38;;;;;;;;;;;;;;;9.98;56.87;98878.25;4993824;28;19932;-87
2021/09/15 00:33:04;;;;;;;;;;;;;;;10.02;57.00;98875.69;4993871;28;20024;-88
2021/09/15 00:35:30;;;;;;;;;;;;;;;10.01;56.53;98874.88;4976429;28;19988;-86
2021/09/15 00:38:04;;;;;;;;;;;;;;;10.03;56.99;98869.91;4993577;28;20326;-87
2021/09/15 00:40:32;;;;;;;;;;;;;;;10.03;57.49;98874.53;4976472;28;19937;-88
2021/09/15 00:42:58;;;;;;;;;;;;;;;10.05;57.04;98883.22;4977013;28;19925;-88
2021/09/15 00:45:27;;;;;;;;;;;;;;;10.07;56.98;98890.00;4994146;28;19926;-87
2021/09/15 00:47:52;;;;;;;;;;;;;;;10.04;56.82;98887.91;4976189;28;20383;-89
2021/09/15 00:50:19;;;;;;;;;;;;;;;10.00;57.07;98876.00;4960128;28;19985;-88
2021/09/15 00:52:46;;;;;;;;;;;;;;;10.01;57.15;98885.00;4993901;28;19922;-88
2021/09/15 00:55:13;;;;;;;;;;;;;;;10.04;57.07;98876.16;4976548;28;19997;-88
2021/09/15 00:57:39;;;;;;;;;;;;;;;10.04;57.09;98885.16;4993335;28;19932;-89
2021/09/15 01:00:06;;;;;;;;;;;;;;;10.09;57.19;98887.72;4993107;28;20110;-89
2021/09/15 01:02:33;;;;;;;;;;;;;;;10.09;57.28;98887.72;5007481;28;20027;-90
2021/09/15 01:05:08;;;;;;;;;;;;;;;10.06;57.07;98887.56;5011612;28;19929;-87
2021/09/15 01:07:35;;;;;;;;;;;;;;;10.05;57.12;98886.75;4975606;28;19933;-89
2021/09/15 01:10:02;;;;;;;;;;;;;;;10.07;57.30;98883.72;4975667;28;19930;-88
2021/09/15 01:12:31;;;;;;;;;;;;;;;10.06;57.43;98895.75;4993380;28;19932;-92
2021/09/15 01:15:32;;;;;;;;;;;;;;;10.07;57.41;98894.66;4894987;29;19927;-88
2021/09/15 01:18:19;;;;;;;;;;;;;;;10.01;57.57;98899.44;4957237;28;19925;-88
2021/09/15 01:21:09;;;;;;;;;;;;;;;10.00;57.89;98914.25;4959904;28;19922;-89
2021/09/15 01:23:46;;;;;;;;;;;;;;;10.05;57.88;98891.44;4959752;28;20025;-88
2021/09/15 01:26:37;;;;;;;;;;;;;;;10.08;57.73;98897.06;4992867;28;19926;-87
2021/09/15 01:29:30;;;;;;;;;;;;;;;10.06;57.81;98907.47;4991181;28;19926;-88
2021/09/15 01:32:06;;;;;;;;;;;;;;;10.06;57.81;98896.56;4975227;28;19926;-87
2021/09/15 01:34:34;;;;;;;;;;;;;;;10.08;57.47;98899.78;4959254;28;19981;-88
2021/09/15 01:37:01;;;;;;;;;;;;;;;10.08;57.70;98907.19;4943302;28;19969;-88
2021/09/15 01:39:30;;;;;;;;;;;;;;;10.07;57.85;98913.78;4980296;28;20027;-87
2021/09/15 01:42:01;;;;;;;;;;;;;;;10.11;58.39;98912.78;4975121;28;20017;-89
2021/09/15 01:44:32;;;;;;;;;;;;;;;10.13;58.19;98898.81;4992647;28;19925;-87
2021/09/15 01:47:00;;;;;;;;;;;;;;;10.07;58.06;98894.66;4959362;28;19926;-91
2021/09/15 01:49:32;;;;;;;;;;;;;;;10.09;57.74;98912.31;4975423;28;20542;-88
2021/09/15 01:51:59;;;;;;;;;;;;;;;10.08;57.81;98899.78;4975273;28;19948;-87
2021/09/15 01:54:25;;;;;;;;;;;;;;;10.07;58.48;98898.19;4959437;28;19933;-89
2021/09/15 01:56:52;;;;;;;;;;;;;;;10.06;58.02;98895.75;4958241;28;19930;-87
2021/09/15 01:59:41;;;;;;;;;;;;;;;10.07;58.29;98892.72;4950084;28;19984;-89
2021/09/15 02:02:39;;;;;;;;;;;;;;;10.05;58.36;98902.34;4941534;28;19930;-87
2021/09/15 02:05:13;;;;;;;;;;;;;;;10.08;58.38;98902.50;4958961;28;19925;-88
2021/09/15 02:08:03;;;;;;;;;;;;;;;10.06;58.78;98898.50;4990734;28;19980;-89
2021/09/15 02:10:52;;;;;;;;;;;;;;;10.02;58.74;98911.19;4976751;28;19930;-93
2021/09/15 02:13:17;;;;;;;;;;;;;;;10.05;58.73;98907.81;4975028;28;19926;-88
2021/09/15 02:15:43;;;;;;;;;;;;;;;10.05;58.86;98914.06;4979010;28;19932;-88
2021/09/15 02:18:10;;;;;;;;;;;;;;;10.09;59.18;98908.78;4992379;28;20523;-87
2021/09/15 02:20:57;;;;;;;;;;;;;;;10.06;58.85;98917.59;4978137;28;19957;-88
2021/09/15 02:23:58;;;;;;;;;;;;;;;10.09;58.64;98923.22;4954261;28;19961;-88
2021/09/15 02:26:46;;;;;;;;;;;;;;;10.05;59.06;98905.06;4975705;28;19980;-88
2021/09/15 02:29:12;;;;;;;;;;;;;;;10.00;58.86;98907.94;4959306;28;20354;-86
2021/09/15 02:32:03;;;;;;;;;;;;;;;10.01;59.38;98915.84;4953985;28;19933;-87
2021/09/15 02:35:05;;;;;;;;;;;;;;;10.04;59.30;98928.06;4890064;29;20068;-88
2021/09/15 02:37:51;;;;;;;;;;;;;;;10.00;59.40;98919.69;4958888;28;20355;-90
2021/09/15 02:40:38;;;;;;;;;;;;;;;9.96;59.37;98935.09;4976823;28;19926;-94
2021/09/15 02:43:16;;;;;;;;;;;;;;;10.00;59.46;98930.63;4959410;28;19926;-86
2021/09/15 02:46:09;;;;;;;;;;;;;;;10.06;59.22;98934.00;4981226;28;19925;-88
2021/09/15 02:48:54;;;;;;;;;;;;;;;10.12;59.39;98932.72;4964780;28;20028;-87
2021/09/15 02:51:26;;;;;;;;;;;;;;;10.09;59.32;98930.63;4995664;28;19961;-86
2021/09/15 02:54:15;;;;;;;;;;;;;;;10.03;59.68;98938.19;4995084;28;19973;-87
2021/09/15 02:57:01;;;;;;;;;;;;;;;10.03;59.29;98940.09;4977839;28;19980;-89
2021/09/15 02:59:37;;;;;;;;;;;;;;;10.10;59.62;98935.78;4995357;28;20414;-90
2021/09/15 03:02:18;;;;;;;;;;;;;;;10.07;59.87;98935.63;4970512;28;19979;-88
2021/09/15 03:05:10;;;;;;;;;;;;;;;10.10;59.62;98932.25;5015231;28;19925;-88
2021/09/15 03:07:56;;;;;;;;;;;;;;;10.06;59.71;98937.50;4985140;28;19929;-89
2021/09/15 03:10:24;;;;;;;;;;;;;;;10.08;59.75;98946.22;4962261;28;19953;-92
2021/09/15 03:12:49;;;;;;;;;;;;;;;10.04;59.74;98942.50;4962610;28;19970;-91
2021/09/15 03:15:17;;;;;;;;;;;;;;;10.12;59.34;98949.91;4979090;28;20469;-93
2021/09/15 03:17:43;;;;;;;;;;;;;;;10.12;59.68;98949.09;4996010;28;19980;-88
2021/09/15 03:20:09;;;;;;;;;;;;;;;10.06;59.65;98945.72;4979075;28;19961;-95
2021/09/15 03:22:36;;;;;;;;;;;;;;;10.11;60.05;98942.03;4998348;28;19925;-87
2021/09/15 03:25:04;;;;;;;;;;;;;;;10.15;59.85;98948.47;4977532;28;19984;-88
2021/09/15 03:27:30;;;;;;;;;;;;;;;10.14;59.81;98940.59;5001085;28;20406;-88
2021/09/15 03:29:57;;;;;;;;;;;;;;;10.10;60.12;98948.63;4980725;28;19925;-88
2021/09/15 03:32:23;;;;;;;;;;;;;;;10.12;60.17;98947.16;4967865;28;19926;-88
2021/09/15 03:34:50;;;;;;;;;;;;;;;10.16;59.86;98943.81;4961263;28;19968;-88
2021/09/15 03:37:16;;;;;;;;;;;;;;;10.20;60.12;98940.13;4977059;28;19965;-88
2021/09/15 03:39:42;;;;;;;;;;;;;;;10.04;60.02;98950.69;4960802;28;19932;-89
2021/09/15 03:42:09;;;;;;;;;;;;;;;10.10;60.17;98948.63;4977246;28;20020;-87
2021/09/15 03:44:35;;;;;;;;;;;;;;;10.08;60.15;98948.13;4977255;28;20008;-87
2021/09/15 03:47:02;;;;;;;;;;;;;;;10.13;60.23;98950.69;4977017;28;19977;-88
2021/09/15 03:49:28;;;;;;;;;;;;;;;10.12;60.31;98960.03;4976926;28;20024;-88
2021/09/15 03:51:56;;;;;;;;;;;;;;;10.05;60.26;98956.97;4994764;28;20020;-89
2021/09/15 03:54:21;;;;;;;;;;;;;;;9.99;60.89;98961.75;4961026;28;20036;-88
2021/09/15 03:56:47;;;;;;;;;;;;;;;10.02;60.69;98960.31;4994370;28;19995;-87
2021/09/15 03:59:13;;;;;;;;;;;;;;;9.96;60.92;98954.19;4976213;28;19926;-87
2021/09/15 04:01:39;;;;;;;;;;;;;;;9.99;60.82;98958.22;4944111;28;19926;-88
2021/09/15 04:04:05;;;;;;;;;;;;;;;10.09;61.06;98966.91;4974948;28;20064;-88
2021/09/15 04:06:31;;;;;;;;;;;;;;;10.11;60.76;98980.28;4981308;28;20438;-88
2021/09/15 04:09:00;;;;;;;;;;;;;;;10.06;60.95;98983.16;4961100;28;19934;-89
2021/09/15 04:11:29;;;;;;;;;;;;;;;10.12;60.88;98987.34;4972951;28;20414;-88
2021/09/15 04:13:56;;;;;;;;;;;;;;;10.09;61.44;98977.03;4981314;28;20064;-89
2021/09/15 04:16:22;;;;;;;;;;;;;;;10.07;60.90;98979.31;4976698;28;20028;-90
2021/09/15 04:18:48;;;;;;;;;;;;;;;10.09;60.98;98988.78;4957736;28;20399;-91
2021/09/15 04:21:15;;;;;;;;;;;;;;;10.14;60.74;98979.66;4960445;28;20434;-90
2021/09/15 04:31:12;;;;;;;;;;;;;;;10.16;60.85;98991.03;4983222;28;19941;-82
2021/09/15 04:32:05;;;;;;;;;;;;;;;10.25;60.81;99002.78;4976278;28;19933;-80
2021/09/15 04:34:31;;;;;;;;;;;;;;;10.23;61.06;99005.06;4976230;28;19929;-83
2021/09/15 04:36:58;;;;;;;;;;;;;;;10.26;61.17;98998.16;4993225;28;19944;-85
2021/09/15 04:39:25;;;;;;;;;;;;;;;10.27;61.16;98994.31;4993050;28;19925;-81
2021/09/15 04:41:53;;;;;;;;;;;;;;;10.55;62.83;99009.28;4993711;28;19926;-80
2021/09/15 04:44:20;;;;;;;;;;;;;;;10.55;60.15;99003.81;4975917;28;19932;-84
2021/09/15 04:46:50;;;;;;;;;;;;;;;10.40;60.57;98998.84;4975385;28;19925;-81
2021/09/15 04:49:16;;;;;;;;;;;;;;;10.75;60.96;98996.91;4943042;28;19925;-83
2021/09/15 04:51:47;;;;;;;;;;;;;;;10.54;60.45;99015.09;4975986;28;20302;-83
2021/09/15 04:54:13;;;;;;;;;;;;;;;10.45;60.83;99011.53;4992878;28;19972;-83
2021/09/15 04:56:42;;;;;;;;;;;;;;;10.38;60.75;99011.22;4959960;28;20351;-83
2021/09/15 04:59:11;;;;;;;;;;;;;;;10.35;61.27;99020.84;4993395;28;19929;-83
2021/09/15 05:01:38;;;;;;;;;;;;;;;10.34;60.96;99027.44;4993121;28;19925;-83
2021/09/15 05:04:05;;;;;;;;;;;;;;;10.36;61.16;99019.72;4993071;28;19926;-83
2021/09/15 05:06:31;;;;;;;;;;;;;;;10.35;60.90;99031.78;4992522;28;19929;-83
2021/09/15 05:08:57;;;;;;;;;;;;;;;10.41;60.97;99043.38;4975384;28;19948;-84
2021/09/15 05:11:23;;;;;;;;;;;;;;;10.34;61.20;99032.91;4975451;28;19925;-83
2021/09/15 05:13:50;;;;;;;;;;;;;;;10.35;61.15;99043.50;4975464;28;19925;-83
2021/09/15 05:16:17;;;;;;;;;;;;;;;10.39;61.20;99037.41;4975523;28;19926;-83
2021/09/15 05:18:44;;;;;;;;;;;;;;;10.33;61.32;99044.94;4975670;28;19926;-84
2021/09/15 05:21:10;;;;;;;;;;;;;;;10.38;61.36;99036.59;4992919;28;20308;-84
2021/09/15 05:23:37;;;;;;;;;;;;;;;10.36;61.32;99030.63;4993039;28;20430;-83
2021/09/15 05:26:06;;;;;;;;;;;;;;;10.43;61.29;99044.66;4975893;28;19988;-83
2021/09/15 05:28:33;;;;;;;;;;;;;;;10.42;61.45;99044.97;4975430;28;19926;-83
2021/09/15 05:30:58;;;;;;;;;;;;;;;10.37;61.37;99045.13;4975528;28;19972;-83
2021/09/15 05:33:29;;;;;;;;;;;;;;;10.43;61.65;99041.94;4992658;28;19921;-84
2021/09/15 05:35:55;;;;;;;;;;;;;;;10.47;61.18;99053.81;4992642;28;19933;-83
2021/09/15 05:38:22;;;;;;;;;;;;;;;10.55;61.31;99050.28;4975187;28;20068;-84
2021/09/15 05:41:11;;;;;;;;;;;;;;;10.53;61.10;99038.88;4979676;28;19932;-84
2021/09/15 05:43:38;;;;;;;;;;;;;;;10.45;60.76;99045.13;4992497;28;19929;-83
2021/09/15 05:46:07;;;;;;;;;;;;;;;10.53;61.37;99059.97;4975176;28;20346;-84
2021/09/15 05:48:33;;;;;;;;;;;;;;;10.57;61.53;99052.72;4958995;28;19930;-84
2021/09/15 05:50:59;;;;;;;;;;;;;;;10.63;61.60;99056.09;4975387;28;19969;-84
2021/09/15 05:53:26;;;;;;;;;;;;;;;10.53;61.27;99060.75;4975321;28;19926;-84
2021/09/15 05:55:52;;;;;;;;;;;;;;;10.55;61.17;99063.16;4975196;28;19961;-84
2021/09/15 05:58:21;;;;;;;;;;;;;;;10.47;61.60;99069.44;4975173;28;19949;-83
2021/09/15 06:00:47;;;;;;;;;;;;;;;10.57;62.16;99069.13;4961751;28;19960;-83
2021/09/15 06:03:16;;;;;;;;;;;;;;;10.63;61.33;99072.47;4979417;28;19977;-85
2021/09/15 06:05:51;;;;;;;;;;;;;;;10.74;61.81;99082.00;4978660;28;19968;-81
2021/09/15 06:08:19;;;;;;;;;;;;;;;10.77;61.83;99073.97;4979181;28;19963;-80
2021/09/15 06:10:45;;;;;;;;;;;;;;;10.70;61.61;99083.78;4978812;28;19987;-81
2021/09/15 06:13:13;;;;;;;;;;;;;;;10.79;62.15;99077.19;4979147;28;19921;-81
2021/09/15 06:15:39;;;;;;;;;;;;;;;10.80;62.07;99080.72;4978707;28;20280;-81
2021/09/15 06:18:06;;;;;;;;;;;;;;;10.84;61.22;99078.97;4996060;28;19980;-81
2021/09/15 06:20:48;;;;;;;;;;;;;;;10.80;61.71;99086.19;4996038;28;20441;-81
2021/09/15 06:23:26;;;;;;;;;;;;;;;10.88;61.67;99082.66;4996120;28;19929;-82
2021/09/15 06:26:00;;;;;;;;;;;;;;;10.85;61.52;99086.03;4996221;28;19922;-90
2021/09/15 06:28:29;;;;;;;;;;;;;;;10.85;61.48;99087.97;4978720;28;19926;-91
2021/09/15 06:30:57;;;;;;;;;;;;;;;10.77;61.34;99084.09;4996267;28;20036;-90
2021/09/15 06:33:24;;;;;;;;;;;;;;;10.80;61.20;99092.47;4995934;28;20020;-90
2021/09/15 06:35:51;;;;;;;;;;;;;;;10.90;60.89;99093.28;4978707;28;20080;-90
2021/09/15 06:38:17;;;;;;;;;;;;;;;10.92;60.78;99100.03;4995975;28;19932;-91
2021/09/15 06:40:43;;;;;;;;;;;;;;;10.90;60.38;99105.03;4978605;28;20310;-90
2021/09/15 06:43:09;;;;;;;;;;;;;;;10.92;60.27;99093.75;4962470;28;19979;-91
2021/09/15 06:45:35;;;;;;;;;;;;;;;10.88;60.16;99093.59;4946387;28;20292;-90
2021/09/15 06:48:01;;;;;;;;;;;;;;;10.94;60.68;99108.72;4978408;28;19933;-90
2021/09/15 06:50:27;;;;;;;;;;;;;;;10.94;60.53;99095.06;4995690;28;20028;-85
2021/09/15 06:52:53;;;;;;;;;;;;;;;11.02;59.91;99096.97;4995977;28;19933;-89
2021/09/15 06:55:19;;;;;;;;;;;;;;;11.15;60.13;99099.88;4978238;28;20307;-89
2021/09/15 06:57:49;;;;;;;;;;;;;;;11.28;60.73;99099.72;4995622;28;19926;-88
2021/09/15 07:00:18;;;;;;;;;;;;;;;11.17;59.55;99092.16;4978257;28;20288;-89
2021/09/15 07:02:45;;;;;;;;;;;;;;;11.21;59.77;99109.53;4995381;28;20009;-88
2021/09/15 07:05:11;;;;;;;;;;;;;;;11.22;59.86;99117.41;4978091;28;19926;-83
2021/09/15 07:07:40;;;;;;;;;;;;;;;11.23;59.74;99110.84;4977503;28;19953;-89
2021/09/15 07:10:07;;;;;;;;;;;;;;;11.15;59.95;99106.16;4977863;28;19926;-88
2021/09/15 07:12:33;;;;;;;;;;;;;;;11.02;60.08;99107.91;4977466;28;19934;-88
2021/09/15 07:14:59;;;;;;;;;;;;;;;11.00;60.51;99107.44;4994925;28;20028;-89
2021/09/15 07:17:25;;;;;;;;;;;;;;;10.95;61.13;99099.38;4995267;28;20012;-89
2021/09/15 07:19:50;;;;;;;;;;;;;;;11.03;61.14;99112.28;4946004;28;20383;-89
2021/09/15 07:22:16;;;;;;;;;;;;;;;11.09;60.48;99107.44;4977654;28;20028;-88
2021/09/15 07:24:42;;;;;;;;;;;;;;;11.08;60.73;99105.84;4977375;28;19929;-88
2021/09/15 07:27:10;;;;;;;;;;;;;;;11.11;60.71;99120.81;4995059;28;19925;-94
2021/09/15 07:29:36;;;;;;;;;;;;;;;11.11;60.43;99102.47;4995069;28;19933;-88
2021/09/15 07:32:04;;;;;;;;;;;;;;;11.13;61.11;99108.44;4977760;28;19925;-88
2021/09/15 07:34:29;;;;;;;;;;;;;;;11.15;60.87;99108.09;4961402;28;19926;-88
2021/09/15 07:36:56;;;;;;;;;;;;;;;11.38;60.28;99104.06;4994779;28;20315;-88
2021/09/15 07:39:22;;;;;;;;;;;;;;;11.60;60.17;99111.28;4994784;28;19930;-88
2021/09/15 07:41:48;;;;;;;;;;;;;;;11.62;59.77;99110.94;4994619;28;19933;-88
2021/09/15 07:44:14;;;;;;;;;;;;;;;11.68;58.74;99113.19;4994724;28;20303;-88
2021/09/15 07:46:40;;;;;;;;;;;;;;;11.77;58.57;99118.66;4977055;28;19989;-88
2021/09/15 07:49:05;;;;;;;;;;;;;;;11.74;58.34;99124.78;4977100;28;20323;-87
2021/09/15 07:51:31;;;;;;;;;;;;;;;11.47;58.18;99120.47;4962941;28;20296;-88
2021/09/15 07:53:57;;;;;;;;;;;;;;;11.55;58.69;99130.59;4994422;28;19945;-88
2021/09/15 07:56:24;;;;;;;;;;;;;;;11.52;58.39;99136.72;4994484;28;20318;-88
2021/09/15 07:58:50;;;;;;;;;;;;;;;11.54;58.27;99139.97;4994501;28;20016;-88
2021/09/15 08:01:17;;;;;;;;;;;;;;;11.50;58.28;99126.13;4976802;28;19922;-88
2021/09/15 08:03:42;;;;;;;;;;;;;;;11.55;58.20;99143.50;4976988;28;19937;-88
2021/09/15 08:06:11;;;;;;;;;;;;;;;11.37;58.40;99134.50;4994060;28;19952;-88
2021/09/15 08:08:36;;;;;;;;;;;;;;;11.27;59.03;99139.16;4994166;28;19930;-88
2021/09/15 08:11:02;;;;;;;;;;;;;;;11.17;58.50;99147.69;4993959;28;20463;-89
2021/09/15 08:13:28;;;;;;;;;;;;;;;11.07;58.48;99149.94;4976670;28;20402;-88
2021/09/15 08:15:54;;;;;;;;;;;;;;;11.00;58.60;99164.09;4976499;28;19926;-88
2021/09/15 08:18:20;;;;;;;;;;;;;;;10.98;58.32;99153.44;4976839;28;19975;-88
2021/09/15 08:20:46;;;;;;;;;;;;;;;10.96;58.48;99161.19;4976733;28;19926;-88
2021/09/15 08:23:13;;;;;;;;;;;;;;;11.11;58.54;99159.91;4975557;28;20080;-89
2021/09/15 08:25:39;;;;;;;;;;;;;;;11.09;58.16;99161.34;4976667;28;19921;-89
2021/09/15 08:28:05;;;;;;;;;;;;;;;11.19;57.78;99161.03;4993754;28;20401;-88
2021/09/15 08:30:31;;;;;;;;;;;;;;;11.32;57.42;99164.75;4993789;28;19930;-89
2021/09/15 08:32:57;;;;;;;;;;;;;;;11.26;57.30;99169.59;4976415;28;20295;-89
2021/09/15 08:35:24;;;;;;;;;;;;;;;11.30;57.21;99167.81;4976501;28;20345;-88
2021/09/15 08:37:49;;;;;;;;;;;;;;;11.36;57.29;99166.53;4976248;28;20029;-89
2021/09/15 08:40:16;;;;;;;;;;;;;;;11.39;56.24;99185.06;4976200;28;20391;-89
2021/09/15 08:42:42;;;;;;;;;;;;;;;11.29;56.17;99183.44;4976261;28;19930;-89
2021/09/15 08:45:10;;;;;;;;;;;;;;;11.37;57.15;99181.03;4993501;28;19926;-89
2021/09/15 08:47:37;;;;;;;;;;;;;;;11.50;57.61;99191.81;4993487;28;20350;-89
2021/09/15 08:50:04;;;;;;;;;;;;;;;11.48;57.24;99191.31;4975938;28;19926;-89
2021/09/15 08:52:30;;;;;;;;;;;;;;;11.37;56.14;99198.25;4976131;28;20399;-88
2021/09/15 08:54:56;;;;;;;;;;;;;;;11.34;56.58;99189.88;4975786;28;20017;-88
2021/09/15 08:57:22;;;;;;;;;;;;;;;11.36;56.36;99206.78;4993381;28;20024;-88
2021/09/15 08:59:48;;;;;;;;;;;;;;;11.28;56.47;99206.44;4975868;28;19922;-89
2021/09/15 09:02:14;;;;;;;;;;;;;;;11.26;56.50;99194.22;4975775;28;20350;-88
2021/09/15 09:04:49;;;;;;;;;;;;;;;11.32;56.04;99200.31;4975811;28;19969;-88
2021/09/15 09:07:15;;;;;;;;;;;;;;;11.35;56.81;99199.69;4975306;28;19968;-88
2021/09/15 09:09:48;;;;;;;;;;;;;;;11.39;56.74;99206.13;4975373;28;19964;-89
2021/09/15 09:12:15;;;;;;;;;;;;;;;11.45;56.36;99204.84;4975900;28;20024;-89
2021/09/15 09:14:41;;;;;;;;;;;;;;;11.45;56.38;99208.38;4992962;28;19926;-88
2021/09/15 09:17:07;;;;;;;;;;;;;;;11.43;56.40;99209.84;4975715;28;19922;-89
2021/09/15 09:19:33;;;;;;;;;;;;;;;11.47;56.56;99216.28;4975722;28;19926;-89
2021/09/15 09:22:05;;;;;;;;;;;;;;;11.48;56.39;99223.38;4975869;28;19926;-89
2021/09/15 09:24:32;;;;;;;;;;;;;;;11.47;55.71;99225.31;4975828;28;19976;-88
2021/09/15 09:26:59;;;;;;;;;;;;;;;11.49;55.88;99220.31;4992686;28;20307;-89
2021/09/15 09:29:36;;;;;;;;;;;;;;;11.57;56.10;99223.38;4975313;28;20427;-88
2021/09/15 09:32:06;;;;;;;;;;;;;;;11.60;55.76;99225.47;4975336;28;19930;-88
2021/09/15 09:34:43;;;;;;;;;;;;;;;11.59;55.35;99226.59;4975027;28;20394;-88
2021/09/15 09:37:18;;;;;;;;;;;;;;;11.66;55.33;99229.66;4992587;28;19933;-96
2021/09/15 09:39:47;;;;;;;;;;;;;;;11.62;54.84;99228.69;4975485;28;19926;-88
2021/09/15 09:42:22;;;;;;;;;;;;;;;11.55;55.35;99226.41;4975235;28;19930;-88
2021/09/15 09:45:08;;;;;;;;;;;;;;;11.60;54.80;99228.22;4975163;28;20169;-87
2021/09/15 09:47:37;;;;;;;;;;;;;;;11.66;54.85;99241.44;4992299;28;19926;-88
2021/09/15 09:50:10;;;;;;;;;;;;;;;11.75;54.62;99233.19;4992373;28;19929;-89
2021/09/15 09:52:51;;;;;;;;;;;;;;;11.72;53.89;99245.63;4975112;28;19925;-88
2021/09/15 09:55:19;;;;;;;;;;;;;;;11.70;53.67;99230.63;4992236;28;19999;-87
2021/09/15 09:57:48;;;;;;;;;;;;;;;11.82;53.13;99239.00;4992704;28;19932;-87
2021/09/15 10:00:16;;;;;;;;;;;;;;;11.97;52.71;99238.53;4992454;28;19932;-88
2021/09/15 10:02:42;;;;;;;;;;;;;;;12.08;52.75;99238.19;4974914;28;20322;-88
2021/09/15 10:05:08;;;;;;;;;;;;;;;12.11;52.04;99234.81;4958966;28;20040;-87
2021/09/15 10:07:37;;;;;;;;;;;;;;;12.22;51.54;99245.13;4991610;28;19969;-88
2021/09/15 10:10:03;;;;;;;;;;;;;;;12.28;50.95;99244.94;4975251;28;20306;-88
2021/09/15 10:12:30;;;;;;;;;;;;;;;12.35;51.28;99237.84;4974749;28;20024;-80
2021/09/15 10:15:00;;;;;;;;;;;;;;;12.41;50.29;99243.94;4992286;28;19933;-87
2021/09/15 10:17:28;;;;;;;;;;;;;;;12.39;50.25;99247.00;4974855;28;19973;-88
2021/09/15 10:19:56;;;;;;;;;;;;;;;12.38;49.78;99244.56;4992137;28;19956;-88
2021/09/15 10:22:29;;;;;;;;;;;;;;;12.17;50.05;99250.75;4992290;28;19995;-88
2021/09/15 10:24:56;;;;;;;;;;;;;;;12.13;49.87;99246.25;4992100;28;20429;-87
2021/09/15 10:27:23;;;;;;;;;;;;;;;12.09;49.57;99240.63;4974648;28;19976;-87
2021/09/15 10:30:08;;;;;;;;;;;;;;;12.07;49.49;99242.06;4992218;28;19925;-88
2021/09/15 10:32:45;;;;;;;;;;;;;;;12.10;49.76;99242.22;4974578;28;20433;-87
2021/09/15 10:35:13;;;;;;;;;;;;;;;12.26;50.12;99237.03;4974569;28;19933;-87
2021/09/15 10:37:39;;;;;;;;;;;;;;;12.30;49.32;99246.22;4991997;28;19926;-88
2021/09/15 10:40:08;;;;;;;;;;;;;;;12.36;49.44;99253.13;4991970;28;19932;-87
2021/09/15 10:42:34;;;;;;;;;;;;;;;12.36;49.36;99250.41;4974597;28;19926;-87
2021/09/15 10:45:16;;;;;;;;;;;;;;;12.49;50.04;99262.31;4974531;28;20399;-87
2021/09/15 10:47:44;;;;;;;;;;;;;;;12.53;49.49;99256.97;4977038;28;19932;-87
2021/09/15 10:50:11;;;;;;;;;;;;;;;12.56;49.65;99264.53;4995638;28;20407;-87
2021/09/15 10:52:37;;;;;;;;;;;;;;;12.57;49.70;99264.19;4978335;28;19921;-88
2021/09/15 10:55:24;;;;;;;;;;;;;;;12.54;49.36;99269.53;4995555;28;19957;-87
2021/09/15 10:57:51;;;;;;;;;;;;;;;12.54;49.95;99267.59;4995712;28;19973;-87
2021/09/15 11:00:16;;;;;;;;;;;;;;;12.65;49.40;99290.00;4995476;28;19925;-88
2021/09/15 11:02:44;;;;;;;;;;;;;;;12.68;49.40;99281.94;4995374;28;20437;-87
2021/09/15 11:05:25;;;;;;;;;;;;;;;12.67;48.54;99279.50;4978019;28;20020;-83
2021/09/15 11:07:51;;;;;;;;;;;;;;;12.69;48.85;99288.22;4995118;28;20395;-84
2021/09/15 11:10:35;;;;;;;;;;;;;;;12.74;47.69;99276.25;4994763;28;19972;-91
2021/09/15 11:13:05;;;;;;;;;;;;;;;12.90;47.09;99274.56;4991962;28;19926;-95
2021/09/15 11:15:32;;;;;;;;;;;;;;;13.04;47.41;99266.91;4971291;28;20017;-83
2021/09/15 11:17:58;;;;;;;;;;;;;;;13.25;46.36;99271.72;4989470;28;20015;-91
2021/09/15 11:20:26;;;;;;;;;;;;;;;13.48;46.59;99262.03;4991092;28;20391;-90
2021/09/15 11:22:52;;;;;;;;;;;;;;;13.57;45.79;99264.69;4989599;28;19930;-89
2021/09/15 11:25:23;;;;;;;;;;;;;;;13.66;45.62;99262.69;4989580;28;19926;-94
2021/09/15 11:28:08;;;;;;;;;;;;;;;13.76;46.40;99267.78;4973287;28;19972;-89
2021/09/15 11:30:38;;;;;;;;;;;;;;;13.75;46.32;99260.69;4976281;28;19980;-84
2021/09/15 11:33:04;;;;;;;;;;;;;;;13.81;45.96;99273.09;4993929;28;20391;-86
2021/09/15 11:35:34;;;;;;;;;;;;;;;13.84;44.88;99263.34;4993332;28;20343;-84
2021/09/15 11:38:00;;;;;;;;;;;;;;;14.05;44.33;99266.91;4993926;28;19961;-92
2021/09/15 11:40:30;;;;;;;;;;;;;;;14.08;42.89;99265.44;4961492;28;19957;-94
2021/09/15 11:42:56;;;;;;;;;;;;;;;14.10;43.61;99257.63;4993624;28;19921;-87
2021/09/15 11:45:23;;;;;;;;;;;;;;;13.88;42.46;99266.25;4993701;28;19925;-92
2021/09/15 11:47:50;;;;;;;;;;;;;;;13.81;43.79;99258.56;4976535;28;19925;-94
2021/09/15 11:50:27;;;;;;;;;;;;;;;13.81;42.98;99258.56;4975760;28;19973;-91
2021/09/15 11:53:00;;;;;;;;;;;;;;;13.75;43.68;99266.19;4992348;28;19930;-84
2021/09/15 11:55:29;;;;;;;;;;;;;;;13.78;43.87;99265.53;4992876;28;19929;-84
2021/09/15 11:58:00;;;;;;;;;;;;;;;14.01;45.25;99259.69;4993256;28;19949;-89
2021/09/15 12:00:26;;;;;;;;;;;;;;;14.18;43.99;99254.00;4992074;28;19926;-84
2021/09/15 12:02:54;;;;;;;;;;;;;;;14.11;40.73;99267.50;4992832;28;19964;-89
2021/09/15 12:05:20;;;;;;;;;;;;;;;14.07;41.09;99259.13;4992563;28;20287;-85
2021/09/15 12:07:46;;;;;;;;;;;;;;;14.06;42.12;99262.19;4991395;28;19925;-94
2021/09/15 12:10:12;;;;;;;;;;;;;;;14.10;41.57;99252.97;4989809;28;19930;-89
2021/09/15 12:12:38;;;;;;;;;;;;;;;13.91;41.64;99268.31;4972200;28;19972;-83
2021/09/15 12:15:07;;;;;;;;;;;;;;;13.89;42.46;99265.09;4988732;28;19933;-83
2021/09/15 12:17:33;;;;;;;;;;;;;;;13.90;42.34;99262.00;4988759;28;19929;-83
2021/09/15 12:19:59;;;;;;;;;;;;;;;13.79;42.32;99264.38;4988043;28;19921;-85
2021/09/15 12:22:28;;;;;;;;;;;;;;;14.01;43.77;99262.44;4988345;28;19933;-83
2021/09/15 12:25:00;;;;;;;;;;;;;;;13.97;43.36;99259.56;4987621;28;19922;-83
2021/09/15 12:27:26;;;;;;;;;;;;;;;13.90;42.78;99255.72;4987685;28;20024;-84
2021/09/15 12:29:59;;;;;;;;;;;;;;;13.96;43.93;99254.38;4987346;28;20434;-84
2021/09/15 12:32:31;;;;;;;;;;;;;;;13.94;42.27;99248.41;4969954;28;19930;-85
2021/09/15 12:34:57;;;;;;;;;;;;;;;13.94;43.17;99249.22;4987241;28;19926;-85
2021/09/15 12:37:23;;;;;;;;;;;;;;;14.01;41.10;99251.44;4986803;28;19977;-87
2021/09/15 12:39:50;;;;;;;;;;;;;;;13.93;41.48;99252.28;4986349;28;20324;-84
2021/09/15 12:42:17;;;;;;;;;;;;;;;13.97;41.80;99247.72;4986164;28;20276;-84
2021/09/15 12:44:43;;;;;;;;;;;;;;;13.92;41.15;99245.22;4985664;28;19930;-84
2021/09/15 12:47:10;;;;;;;;;;;;;;;13.82;41.52;99238.97;4985932;28;19926;-87
2021/09/15 12:49:38;;;;;;;;;;;;;;;13.77;42.28;99236.41;4985466;28;20438;-85
2021/09/15 12:52:18;;;;;;;;;;;;;;;13.81;40.45;99250.31;4985886;28;19952;-84
2021/09/15 12:54:54;;;;;;;;;;;;;;;13.74;40.81;99261.84;4985621;28;19965;-85
2021/09/15 12:57:31;;;;;;;;;;;;;;;13.65;40.81;99258.34;4968128;28;20361;-85
2021/09/15 13:00:21;;;;;;;;;;;;;;;13.67;42.53;99256.06;4984755;28;19965;-88
2021/09/15 13:02:50;;;;;;;;;;;;;;;13.61;41.05;99257.41;4984756;28;19932;-86
2021/09/15 13:05:15;;;;;;;;;;;;;;;13.61;41.62;99252.72;4984037;28;20417;-85
2021/09/15 13:07:41;;;;;;;;;;;;;;;13.55;41.11;99258.75;4984352;28;19925;-85